createdAt,value
2022-10-30T00:00:14.599Z,2.27
2022-10-30T00:02:43.401Z,2.40
2022-10-30T00:05:10.953Z,2.50
2022-10-30T00:07:38.365Z,2.67
2022-10-30T00:10:06.290Z,2.60
2022-10-30T00:12:34.205Z,2.63
2022-10-30T00:15:01.742Z,3.30
2022-10-30T00:17:29.215Z,3.00
2022-10-30T00:19:58.342Z,2.90
2022-10-30T00:22:25.857Z,2.07
2022-10-30T00:24:53.406Z,2.10
2022-10-30T00:27:21.283Z,2.20
2022-10-30T00:29:48.866Z,2.23
2022-10-30T00:32:16.297Z,2.87
2022-10-30T00:34:44.004Z,2.20
2022-10-30T00:37:12.854Z,2.00
2022-10-30T00:39:41.162Z,2.23
2022-10-30T00:42:11.401Z,2.10
2022-10-30T00:44:41.526Z,2.17
2022-10-30T00:47:13.220Z,2.00
2022-10-30T00:49:45.562Z,2.20
2022-10-30T00:52:14.341Z,1.83
2022-10-30T00:54:41.794Z,2.03
2022-10-30T00:57:10.192Z,1.97
2022-10-30T00:59:37.976Z,1.97
2022-10-30T01:02:06.019Z,2.03
2022-10-30T01:04:35.221Z,1.93
2022-10-30T01:07:06.949Z,2.13
2022-10-30T01:09:36.392Z,2.70
2022-10-30T01:12:58.962Z,1.70
2022-10-30T01:15:29.380Z,1.77
2022-10-30T01:18:02.354Z,2.40
2022-10-30T01:20:49.541Z,1.90
2022-10-30T01:23:23.767Z,1.80
2022-10-30T01:25:58.100Z,2.10
2022-10-30T01:28:29.383Z,2.77
2022-10-30T01:31:03.675Z,2.13
2022-10-30T01:33:37.818Z,2.20
2022-10-30T01:36:09.345Z,1.87
2022-10-30T01:38:40.318Z,1.90
2022-10-30T01:41:09.150Z,1.87
2022-10-30T01:43:37.012Z,1.80
2022-10-30T01:46:14.093Z,1.47
2022-10-30T01:48:49.955Z,2.10
2022-10-30T01:51:21.512Z,1.93
2022-10-30T01:53:52.376Z,1.73
2022-10-30T01:56:28.159Z,2.23
2022-10-30T01:59:05.654Z,1.53
2022-10-30T02:01:35.559Z,1.83
2022-10-30T02:06:36.261Z,1.87
2022-10-30T02:09:04.170Z,1.70
2022-10-30T02:11:34.394Z,1.70
2022-10-30T02:14:02.560Z,1.43
2022-10-30T02:16:30.892Z,1.97
2022-10-30T02:18:58.353Z,2.00
2022-10-30T02:21:27.467Z,1.53
2022-10-30T02:23:54.915Z,1.70
2022-10-30T02:26:22.357Z,1.40
2022-10-30T02:28:49.895Z,1.63
2022-10-30T02:31:19.233Z,1.53
2022-10-30T02:33:46.964Z,1.87
2022-10-30T02:36:15.416Z,1.50
2022-10-30T02:38:45.041Z,1.63
2022-10-30T02:41:13.208Z,1.50
2022-10-30T02:43:40.842Z,1.70
2022-10-30T02:46:09.507Z,1.70
2022-10-30T02:48:38.041Z,2.10
2022-10-30T02:51:05.692Z,1.63
2022-10-30T02:53:34.483Z,1.93
2022-10-30T02:56:05.297Z,1.83
2022-10-30T02:58:32.934Z,1.70
2022-10-30T03:01:05.710Z,1.70
2022-10-30T03:03:33.762Z,1.40
2022-10-30T03:06:02.211Z,1.80
2022-10-30T03:08:29.944Z,1.77
2022-10-30T03:11:01.197Z,1.93
2022-10-30T03:13:31.047Z,1.40
2022-10-30T03:16:02.507Z,1.63
2022-10-30T03:18:32.363Z,1.47
2022-10-30T03:21:05.743Z,1.50
2022-10-30T03:23:33.200Z,1.63
2022-10-30T03:26:02.318Z,1.60
2022-10-30T03:28:33.215Z,1.50
2022-10-30T03:31:00.918Z,1.33
2022-10-30T03:33:28.810Z,1.53
2022-10-30T03:35:58.205Z,1.70
2022-10-30T03:38:25.673Z,1.93
2022-10-30T03:40:53.121Z,2.23
2022-10-30T03:43:20.771Z,1.97
2022-10-30T03:45:50.691Z,2.10
2022-10-30T03:48:19.603Z,1.57
2022-10-30T03:50:47.260Z,1.83
2022-10-30T03:53:14.972Z,1.47
2022-10-30T03:55:42.882Z,1.30
2022-10-30T03:58:10.405Z,1.67
2022-10-30T04:00:38.932Z,1.67
2022-10-30T04:03:09.146Z,1.43
2022-10-30T04:05:38.537Z,1.53
2022-10-30T04:08:07.998Z,1.40
2022-10-30T04:10:37.852Z,1.50
2022-10-30T04:13:11.139Z,1.70
2022-10-30T04:15:45.365Z,1.67
2022-10-30T04:18:16.256Z,1.10
2022-10-30T04:20:44.225Z,1.30
2022-10-30T04:23:15.254Z,1.43
2022-10-30T04:25:42.942Z,1.37
2022-10-30T04:28:10.425Z,1.87
2022-10-30T04:30:39.471Z,1.53
2022-10-30T04:33:07.820Z,1.20
2022-10-30T04:35:37.847Z,1.00
2022-10-30T04:38:11.055Z,1.40
2022-10-30T04:40:39.204Z,1.50
2022-10-30T04:43:08.628Z,1.60
2022-10-30T04:45:36.944Z,1.23
2022-10-30T04:48:06.518Z,1.40
2022-10-30T04:50:34.593Z,1.30
2022-10-30T04:53:04.733Z,1.43
2022-10-30T04:55:32.410Z,1.13
2022-10-30T04:58:00.959Z,1.47
2022-10-30T05:00:31.174Z,1.33
2022-10-30T05:03:06.636Z,1.80
2022-10-30T05:05:34.317Z,1.30
2022-10-30T05:08:02.542Z,4.07
2022-10-30T05:10:31.703Z,2.03
2022-10-30T05:13:00.046Z,1.80
2022-10-30T05:15:27.571Z,1.60
2022-10-30T05:17:56.414Z,1.53
2022-10-30T05:20:24.132Z,1.37
2022-10-30T05:22:55.152Z,1.23
2022-10-30T05:25:22.690Z,1.50
2022-10-30T05:27:51.870Z,1.57
2022-10-30T05:30:20.039Z,1.60
2022-10-30T05:32:47.502Z,1.50
2022-10-30T05:35:15.009Z,1.50
2022-10-30T05:37:42.625Z,1.30
2022-10-30T05:40:10.816Z,1.87
2022-10-30T05:42:38.686Z,2.23
2022-10-30T05:45:08.555Z,2.67
2022-10-30T05:47:36.829Z,2.30
2022-10-30T05:50:05.723Z,2.33
2022-10-30T05:52:33.398Z,3.87
2022-10-30T05:55:01.450Z,5.30
2022-10-30T05:57:42.831Z,4.63
2022-10-30T06:00:13.237Z,4.47
2022-10-30T06:02:43.635Z,3.83
2022-10-30T06:05:12.952Z,3.87
2022-10-30T06:07:40.774Z,3.30
2022-10-30T06:10:08.748Z,2.67
2022-10-30T06:12:41.347Z,2.00
2022-10-30T06:15:19.321Z,1.77
2022-10-30T06:17:46.767Z,1.37
2022-10-30T06:20:37.295Z,0.97
2022-10-30T06:23:23.385Z,1.70
2022-10-30T06:25:56.698Z,1.00
2022-10-30T06:28:31.915Z,1.30
2022-10-30T06:31:00.718Z,1.67
2022-10-30T06:33:28.225Z,1.83
2022-10-30T06:35:56.118Z,1.27
2022-10-30T06:38:23.990Z,1.10
2022-10-30T06:40:52.870Z,1.30
2022-10-30T06:43:43.164Z,1.50
2022-10-30T06:46:18.364Z,1.60
2022-10-30T06:48:46.358Z,1.90
2022-10-30T06:51:15.383Z,1.80
2022-10-30T06:53:44.023Z,1.80
2022-10-30T06:56:29.952Z,1.13
2022-10-30T06:59:26.744Z,1.93
2022-10-30T07:02:01.036Z,1.47
2022-10-30T07:04:40.054Z,1.50
2022-10-30T07:07:08.676Z,1.50
2022-10-30T07:09:36.377Z,1.97
2022-10-30T07:12:06.949Z,1.37
2022-10-30T07:14:48.778Z,1.50
2022-10-30T07:17:32.774Z,1.83
2022-10-30T07:20:05.969Z,1.77
2022-10-30T07:22:33.631Z,1.53
2022-10-30T07:25:01.497Z,1.50
2022-10-30T07:27:50.184Z,1.33
2022-10-30T07:30:29.380Z,1.20
2022-10-30T07:33:36.383Z,1.43
2022-10-30T07:36:25.634Z,1.50
2022-10-30T07:39:02.957Z,1.13
2022-10-30T07:41:43.708Z,1.27
2022-10-30T07:44:35.085Z,1.07
2022-10-30T07:47:18.502Z,1.50
2022-10-30T07:49:57.239Z,1.67
2022-10-30T07:52:24.860Z,1.60
2022-10-30T07:54:53.202Z,1.70
2022-10-30T07:57:39.027Z,1.47
2022-10-30T08:00:25.441Z,1.50
2022-10-30T08:03:03.785Z,1.60
2022-10-30T08:05:40.042Z,1.27
2022-10-30T08:08:20.865Z,1.77
2022-10-30T08:10:56.294Z,1.80
2022-10-30T08:13:23.794Z,1.97
2022-10-30T08:15:51.253Z,1.93
2022-10-30T08:18:19.150Z,3.50
2022-10-30T08:20:51.314Z,3.20
2022-10-30T08:23:21.658Z,2.63
2022-10-30T08:25:49.098Z,2.90
2022-10-30T08:28:16.783Z,3.13
2022-10-30T08:30:45.391Z,2.80
2022-10-30T08:33:16.400Z,3.20
2022-10-30T08:36:09.019Z,3.27
2022-10-30T08:38:36.591Z,2.53
2022-10-30T08:41:15.280Z,3.00
2022-10-30T08:43:46.910Z,2.90
2022-10-30T08:46:14.405Z,2.80
2022-10-30T08:48:42.022Z,3.20
2022-10-30T08:51:10.806Z,2.70
2022-10-30T08:53:44.252Z,2.80
2022-10-30T08:56:14.791Z,2.70
2022-10-30T08:58:52.832Z,2.63
2022-10-30T09:01:20.531Z,3.40
2022-10-30T09:04:06.844Z,3.40
2022-10-30T09:06:47.806Z,3.90
2022-10-30T09:09:35.050Z,3.10
2022-10-30T09:12:03.752Z,2.40
2022-10-30T09:14:36.919Z,1.63
2022-10-30T09:17:04.819Z,1.90
2022-10-30T09:19:33.256Z,2.93
2022-10-30T09:22:02.203Z,2.20
2022-10-30T09:24:31.262Z,2.03
2022-10-30T09:27:24.805Z,1.80
2022-10-30T09:29:56.117Z,1.70
2022-10-30T09:32:25.982Z,1.60
2022-10-30T09:35:09.415Z,1.77
2022-10-30T09:37:42.788Z,1.83
2022-10-30T09:40:18.224Z,2.20
2022-10-30T09:42:46.820Z,2.10
2022-10-30T09:45:36.504Z,2.10
2022-10-30T09:48:14.309Z,1.90
2022-10-30T09:51:10.294Z,2.30
2022-10-30T09:53:46.189Z,2.07
2022-10-30T09:56:24.807Z,1.70
2022-10-30T09:59:00.866Z,1.67
2022-10-30T10:01:30.225Z,1.83
2022-10-30T10:04:13.054Z,1.80
2022-10-30T10:06:42.885Z,1.93
2022-10-30T10:09:34.026Z,2.00
2022-10-30T10:12:22.218Z,1.57
2022-10-30T10:14:49.993Z,1.60
2022-10-30T10:17:20.943Z,2.07
2022-10-30T10:19:50.324Z,2.00
2022-10-30T10:22:21.333Z,1.73
2022-10-30T10:24:50.505Z,1.70
2022-10-30T10:27:22.411Z,1.57
2022-10-30T10:29:54.730Z,1.30
2022-10-30T10:32:38.355Z,1.50
2022-10-30T10:35:24.694Z,1.70
2022-10-30T10:37:56.607Z,1.47
2022-10-30T10:40:32.648Z,1.53
2022-10-30T10:43:07.106Z,1.70
2022-10-30T10:45:39.908Z,1.53
2022-10-30T10:48:17.983Z,1.80
2022-10-30T10:50:48.351Z,1.87
2022-10-30T10:53:19.203Z,1.90
2022-10-30T10:55:49.995Z,1.70
2022-10-30T10:58:23.058Z,1.77
2022-10-30T11:00:50.931Z,1.77
2022-10-30T11:03:21.118Z,1.70
2022-10-30T11:05:51.278Z,1.80
2022-10-30T11:08:20.732Z,1.67
2022-10-30T11:10:52.180Z,2.47
2022-10-30T11:13:19.682Z,1.63
2022-10-30T11:15:52.289Z,2.00
2022-10-30T11:18:19.683Z,2.10
2022-10-30T11:20:52.568Z,2.07
2022-10-30T11:23:41.054Z,2.00
2022-10-30T11:26:29.395Z,1.80
2022-10-30T11:28:58.199Z,2.43
2022-10-30T11:31:27.672Z,1.87
2022-10-30T11:33:55.545Z,1.73
2022-10-30T11:36:24.444Z,1.87
2022-10-30T11:38:52.138Z,2.30
2022-10-30T11:41:20.386Z,1.70
2022-10-30T11:43:49.967Z,1.87
2022-10-30T11:46:22.568Z,1.60
2022-10-30T11:48:54.589Z,1.97
2022-10-30T11:51:33.703Z,2.00
2022-10-30T11:54:01.642Z,1.87
2022-10-30T11:56:30.031Z,1.97
2022-10-30T11:59:00.120Z,1.80
2022-10-30T12:01:28.521Z,1.70
2022-10-30T12:03:56.744Z,1.73
2022-10-30T12:06:27.880Z,1.90
2022-10-30T12:09:02.459Z,2.20
2022-10-30T12:11:31.619Z,1.90
2022-10-30T12:14:00.494Z,1.93
2022-10-30T12:16:28.441Z,2.00
2022-10-30T12:19:00.205Z,2.00
2022-10-30T12:21:28.436Z,2.10
2022-10-30T12:23:57.556Z,1.90
2022-10-30T12:26:25.952Z,2.20
2022-10-30T12:28:56.424Z,2.13
2022-10-30T12:31:27.074Z,1.60
2022-10-30T12:34:04.329Z,1.97
2022-10-30T12:36:34.697Z,2.30
2022-10-30T12:39:05.081Z,1.97
2022-10-30T12:41:35.217Z,1.93
2022-10-30T12:44:04.930Z,1.90
2022-10-30T12:46:36.870Z,2.13
2022-10-30T12:49:07.712Z,1.70
2022-10-30T12:51:36.906Z,1.60
2022-10-30T12:54:06.654Z,1.73
2022-10-30T12:56:36.844Z,2.40
2022-10-30T12:59:13.232Z,2.47
2022-10-30T13:01:45.807Z,1.90
2022-10-30T13:04:17.639Z,1.70
2022-10-30T13:06:48.366Z,1.80
2022-10-30T13:09:19.247Z,1.90
2022-10-30T13:11:51.199Z,2.17
2022-10-30T13:14:21.373Z,2.43
2022-10-30T13:16:51.464Z,2.53
2022-10-30T13:19:18.891Z,1.93
2022-10-30T13:21:50.794Z,2.50
2022-10-30T13:24:20.046Z,2.20
2022-10-30T13:26:49.093Z,1.90
2022-10-30T13:29:21.579Z,2.00
2022-10-30T13:31:54.724Z,2.17
2022-10-30T13:34:31.985Z,1.90
2022-10-30T13:37:01.544Z,2.10
2022-10-30T13:39:32.246Z,1.87
2022-10-30T13:42:17.340Z,2.77
2022-10-30T13:44:51.597Z,2.23
2022-10-30T13:47:25.544Z,2.03
2022-10-30T13:50:02.307Z,1.80
2022-10-30T13:52:32.580Z,1.80
2022-10-30T13:55:02.374Z,2.40
2022-10-30T13:57:33.615Z,2.00
2022-10-30T14:00:05.022Z,2.57
2022-10-30T14:03:03.113Z,2.20
2022-10-30T14:05:35.895Z,2.50
2022-10-30T14:08:06.937Z,2.63
2022-10-30T14:10:43.757Z,2.43
2022-10-30T14:13:15.985Z,2.23
2022-10-30T14:15:44.372Z,2.00
2022-10-30T14:18:24.352Z,2.30
2022-10-30T14:20:52.282Z,2.30
2022-10-30T14:23:21.830Z,1.77
2022-10-30T14:26:08.444Z,2.00
2022-10-30T14:28:36.718Z,2.13
2022-10-30T14:31:05.008Z,2.13
2022-10-30T14:33:41.857Z,2.17
2022-10-30T14:36:20.112Z,1.90
2022-10-30T14:38:53.736Z,2.53
2022-10-30T14:41:45.578Z,2.27
2022-10-30T14:44:27.913Z,2.33
2022-10-30T14:47:02.214Z,2.20
2022-10-30T14:49:38.535Z,2.13
2022-10-30T14:52:11.888Z,2.70
2022-10-30T14:54:41.895Z,1.90
2022-10-30T14:57:20.799Z,2.40
2022-10-30T14:59:48.257Z,2.23
2022-10-30T15:02:30.943Z,2.17
2022-10-30T15:05:16.380Z,2.30
2022-10-30T15:07:48.653Z,2.10
2022-10-30T15:10:19.611Z,1.93
2022-10-30T15:13:06.244Z,2.37
2022-10-30T15:15:34.437Z,1.87
2022-10-30T15:18:03.940Z,2.10
2022-10-30T15:20:32.072Z,2.57
2022-10-30T15:23:02.804Z,2.07
2022-10-30T15:25:33.360Z,2.33
2022-10-30T15:28:01.625Z,2.13
2022-10-30T15:30:29.290Z,2.50
2022-10-30T15:32:56.971Z,2.77
2022-10-30T15:35:25.747Z,2.30
2022-10-30T15:38:05.889Z,2.73
2022-10-30T15:40:34.311Z,2.40
2022-10-30T15:43:02.972Z,1.90
2022-10-30T15:45:33.562Z,2.00
2022-10-30T15:48:02.845Z,2.07
2022-10-30T15:50:31.651Z,2.57
2022-10-30T15:52:59.342Z,2.50
2022-10-30T15:55:30.046Z,2.20
2022-10-30T15:58:04.254Z,2.73
2022-10-30T16:00:34.237Z,2.90
2022-10-30T16:03:02.618Z,2.70
2022-10-30T16:05:31.203Z,3.13
2022-10-30T16:07:59.461Z,2.60
2022-10-30T16:10:27.964Z,2.90
2022-10-30T16:12:58.779Z,2.67
2022-10-30T16:15:28.280Z,2.73
2022-10-30T16:18:13.591Z,2.77
2022-10-30T16:20:42.391Z,3.13
2022-10-30T16:23:10.125Z,3.20
2022-10-30T16:25:41.855Z,3.30
2022-10-30T16:28:28.989Z,3.20
2022-10-30T16:30:58.012Z,3.17
2022-10-30T16:33:27.014Z,3.30
2022-10-30T16:35:55.949Z,4.10
2022-10-30T16:38:24.276Z,4.27
2022-10-30T16:40:51.900Z,4.57
2022-10-30T16:43:28.868Z,4.53
2022-10-30T16:45:57.322Z,4.80
2022-10-30T16:48:28.219Z,4.87
2022-10-30T16:51:02.490Z,4.30
2022-10-30T16:53:30.622Z,4.13
2022-10-30T16:55:59.170Z,5.10
2022-10-30T16:58:29.041Z,5.07
2022-10-30T17:00:57.792Z,7.47
2022-10-30T17:03:28.106Z,7.17
2022-10-30T17:06:00.041Z,8.43
2022-10-30T17:08:29.795Z,7.03
2022-10-30T17:10:58.742Z,7.70
2022-10-30T17:13:34.796Z,11.23
2022-10-30T17:16:13.455Z,10.53
2022-10-30T17:18:41.348Z,11.80
2022-10-30T17:21:11.141Z,12.77
2022-10-30T17:23:44.809Z,12.60
2022-10-30T17:26:12.977Z,11.60
2022-10-30T17:28:42.407Z,10.80
2022-10-30T17:31:24.062Z,9.57
2022-10-30T17:34:05.977Z,8.90
2022-10-30T17:36:33.374Z,8.63
2022-10-30T17:39:00.867Z,8.30
2022-10-30T17:41:28.383Z,7.63
2022-10-30T17:43:57.502Z,7.17
2022-10-30T17:46:25.317Z,7.27
2022-10-30T17:48:52.743Z,7.83
2022-10-30T17:51:20.460Z,9.17
2022-10-30T17:53:48.274Z,8.73
2022-10-30T17:56:17.055Z,8.57
2022-10-30T17:58:44.513Z,18.23
2022-10-30T18:01:17.112Z,27.53
2022-10-30T18:03:44.576Z,14.70
2022-10-30T18:06:16.085Z,10.30
2022-10-30T18:08:46.395Z,12.80
2022-10-30T18:11:19.746Z,8.03
2022-10-30T18:13:47.680Z,7.33
2022-10-30T18:16:17.263Z,7.47
2022-10-30T18:18:45.367Z,6.80
2022-10-30T18:21:13.430Z,9.67
2022-10-30T18:23:56.460Z,7.60
2022-10-30T18:26:25.687Z,9.20
2022-10-30T18:28:53.238Z,7.50
2022-10-30T18:31:23.306Z,6.93
2022-10-30T18:33:51.056Z,7.30
2022-10-30T18:36:19.514Z,8.23
2022-10-30T18:38:47.247Z,7.80
2022-10-30T18:41:16.291Z,6.67
2022-10-30T18:43:46.671Z,7.47
2022-10-30T18:46:15.357Z,7.83
2022-10-30T18:48:45.359Z,8.63
2022-10-30T18:51:16.098Z,8.37
2022-10-30T18:53:50.983Z,7.93
2022-10-30T18:56:19.222Z,8.63
2022-10-30T18:58:46.681Z,7.07
2022-10-30T19:01:14.324Z,7.03
2022-10-30T19:03:41.885Z,4.10
2022-10-30T19:06:12.719Z,3.87
2022-10-30T19:08:40.132Z,3.63
2022-10-30T19:11:07.780Z,3.70
2022-10-30T19:13:35.264Z,4.83
2022-10-30T19:16:02.718Z,5.20
2022-10-30T19:18:32.381Z,5.10
2022-10-30T19:21:05.068Z,6.27
2022-10-30T19:23:35.213Z,5.67
2022-10-30T19:26:02.719Z,7.07
2022-10-30T19:28:30.739Z,6.50
2022-10-30T19:30:58.241Z,7.57
2022-10-30T19:33:26.150Z,6.27
2022-10-30T19:35:53.986Z,6.57
2022-10-30T19:38:21.422Z,4.67
2022-10-30T19:40:50.481Z,5.20
2022-10-30T19:43:17.933Z,5.20
2022-10-30T19:45:45.401Z,4.57
2022-10-30T19:48:17.715Z,4.57
2022-10-30T19:50:48.385Z,4.43
2022-10-30T19:53:15.858Z,3.50
2022-10-30T19:55:44.028Z,3.30
2022-10-30T19:58:14.274Z,2.87
2022-10-30T20:00:43.449Z,2.33
2022-10-30T20:03:12.165Z,3.20
2022-10-30T20:05:40.226Z,2.33
2022-10-30T20:08:08.719Z,2.60
2022-10-30T20:10:37.017Z,3.20
2022-10-30T20:13:04.700Z,3.23
2022-10-30T20:15:33.667Z,4.37
2022-10-30T20:18:01.587Z,4.30
2022-10-30T20:20:30.479Z,4.43
2022-10-30T20:22:58.401Z,5.43
2022-10-30T20:25:26.829Z,4.37
2022-10-30T20:28:02.276Z,3.80
2022-10-30T20:30:34.557Z,3.00
2022-10-30T20:33:02.417Z,3.50
2022-10-30T20:35:30.127Z,3.40
2022-10-30T20:37:58.427Z,3.07
2022-10-30T20:40:26.269Z,3.60
2022-10-30T20:42:56.015Z,3.63
2022-10-30T20:45:26.749Z,2.67
2022-10-30T20:47:55.633Z,2.93
2022-10-30T20:50:23.065Z,2.67
2022-10-30T20:52:50.766Z,3.03
2022-10-30T20:55:18.485Z,2.70
2022-10-30T20:57:46.259Z,2.70
2022-10-30T21:00:14.277Z,2.57
2022-10-30T21:02:41.809Z,2.30
2022-10-30T21:05:23.634Z,2.00
2022-10-30T21:07:59.205Z,2.33
2022-10-30T21:10:30.498Z,2.87
2022-10-30T21:12:59.939Z,2.00
2022-10-30T21:15:29.806Z,3.33
2022-10-30T21:17:57.629Z,2.70
2022-10-30T21:20:26.728Z,2.90
2022-10-30T21:22:54.186Z,2.90
2022-10-30T21:25:21.595Z,2.73
2022-10-30T21:27:49.090Z,1.67
2022-10-30T21:30:16.566Z,2.13
2022-10-30T21:32:44.019Z,2.20
2022-10-30T21:35:11.476Z,1.90
2022-10-30T21:37:40.242Z,1.70
2022-10-30T21:40:08.509Z,1.83
2022-10-30T21:42:35.914Z,1.80
2022-10-30T21:45:03.670Z,1.90
2022-10-30T21:47:31.169Z,1.67
2022-10-30T21:49:58.577Z,2.03
2022-10-30T21:52:26.040Z,1.70
2022-10-30T21:54:54.825Z,1.90
2022-10-30T21:57:22.268Z,1.97
2022-10-30T21:59:49.692Z,1.80
2022-10-30T22:02:17.183Z,1.73
2022-10-30T22:04:47.582Z,2.00
2022-10-30T22:07:17.709Z,1.80
2022-10-30T22:09:45.486Z,1.70
2022-10-30T22:12:14.246Z,2.10
2022-10-30T22:14:41.664Z,1.90
2022-10-30T22:17:09.382Z,1.90
2022-10-30T22:19:36.811Z,1.60
2022-10-30T22:22:04.236Z,2.00
2022-10-30T22:24:31.857Z,2.03
2022-10-30T22:26:59.262Z,1.73
2022-10-30T22:29:28.038Z,1.80
2022-10-30T22:31:55.503Z,1.97
2022-10-30T22:34:22.907Z,1.80
2022-10-30T22:36:50.304Z,1.90
2022-10-30T22:39:17.826Z,1.70
2022-10-30T22:41:45.276Z,2.07
2022-10-30T22:44:13.526Z,2.13
2022-10-30T22:46:42.358Z,1.50
2022-10-30T22:49:09.778Z,1.80
2022-10-30T22:51:37.992Z,1.80
2022-10-30T22:54:06.234Z,1.80
2022-10-30T22:56:35.078Z,1.80
2022-10-30T22:59:03.319Z,1.80
2022-10-30T23:01:31.884Z,1.80
2022-10-30T23:04:01.790Z,2.23
2022-10-30T23:06:29.989Z,1.80
2022-10-30T23:08:59.228Z,1.73
2022-10-30T23:11:27.492Z,2.00
2022-10-30T23:13:55.077Z,2.00
2022-10-30T23:16:23.725Z,2.07
2022-10-30T23:18:52.837Z,1.83
2022-10-30T23:21:22.960Z,1.90
2022-10-30T23:23:50.803Z,1.87
2022-10-30T23:26:19.887Z,1.87
2022-10-30T23:28:47.853Z,1.53
2022-10-30T23:31:18.502Z,1.70
2022-10-30T23:33:46.996Z,1.93
2022-10-30T23:36:14.465Z,1.83
2022-10-30T23:38:43.248Z,1.47
2022-10-30T23:41:11.047Z,1.63
2022-10-30T23:43:38.490Z,1.50
2022-10-30T23:46:05.913Z,1.43
2022-10-30T23:48:33.686Z,1.73
2022-10-30T23:51:06.423Z,1.90
2022-10-30T23:53:33.956Z,1.40
2022-10-30T23:56:03.022Z,2.03
2022-10-30T23:58:30.581Z,1.80
